»·PEaware :: EAL211 KLAS-KTUS

EAL211 :: KLAS-KTUS

FLIGHT INFORMATION

Flight Status: Arrived
Operator:
Eastern Air Lines
More flights by this operator :: More flights under this callsign
Pilot: Dave P. (45)
Aircraft: BOEING 737-700
(B737)
More flights by this aircraft type
Origin: KLAS McCarran Intl
United States
Destination: KTUS Tucson Intl
United States
More flights between these airports :: More routes between these airports
Route: PRFUM4 DRK J11 PXR DINGO5
File this flight plan on PilotEdge
Remarks: callsign is "EASTERN"
Altitude:
(Current/Filed)
33,000ft
Speed:
(Current/Filed)
458kts
Departed: 01-Oct-20 10:15 AM
Arrived: 01-Oct-20 11:13 AM
Distance/Time
Traveled:
317nm/0:57
Distance/Time
To Go:
Arrived

Flight Plot

Page will automatically refresh every two minutes.

Flight plan parsing failed; only flown route is shown


Map Options




Map Legend


Flown Route
Filed Route
Departure Airport
Arrival Airport
Navaid (VOR, NDB)
Fix

Horizontal Profiles

Position Reports

Time Latitude Longitude Heading Altitude Ground
Speed
01-Oct-20 09:55 36.080755 -115.134869 241 2189ft 0kts
01-Oct-20 09:56 36.080755 -115.134869 241 2189ft 0kts
01-Oct-20 09:57 36.080755 -115.134869 241 2189ft 0kts
01-Oct-20 09:58 36.080755 -115.134869 241 2189ft 0kts
01-Oct-20 09:59 36.080755 -115.134869 241 2189ft 0kts
01-Oct-20 10:00 36.080755 -115.134869 241 2189ft 0kts
01-Oct-20 10:01 36.080755 -115.134869 241 2189ft 0kts
01-Oct-20 10:02 36.080755 -115.134869 241 2189ft 0kts
01-Oct-20 10:03 36.080755 -115.134869 241 2189ft 0kts
01-Oct-20 10:04 36.080755 -115.134869 241 2189ft 0kts
01-Oct-20 10:05 36.080945 -115.134432 241 2189ft 2kts
01-Oct-20 10:06 36.081082 -115.134120 241 2189ft 0kts
01-Oct-20 10:07 36.081082 -115.134120 241 2189ft 0kts
01-Oct-20 10:08 36.081082 -115.134120 241 2189ft 0kts
01-Oct-20 10:09 36.079278 -115.133747 179 2189ft 13kts
01-Oct-20 10:10 36.078665 -115.133746 176 2189ft 10kts
01-Oct-20 10:11 36.078278 -115.128127 90 2189ft 21kts
01-Oct-20 10:12 36.077877 -115.122065 129 2189ft 13kts
01-Oct-20 10:13 36.076403 -115.124037 270 2189ft 26kts
01-Oct-20 10:14 36.075780 -115.166341 263 3197ft 164kts
01-Oct-20 10:15 36.074500 -115.230317 272 4809ft 228kts
01-Oct-20 10:16 36.023247 -115.280739 184 6765ft 287kts
01-Oct-20 10:17 35.944759 -115.291987 166 7406ft 292kts
01-Oct-20 10:18 35.869874 -115.252891 129 10720ft 298kts
01-Oct-20 10:19 35.839147 -115.148188 105 12773ft 352kts
01-Oct-20 10:20 35.823946 -115.026864 86 15792ft 368kts
01-Oct-20 10:21 35.834797 -114.898222 84 18630ft 385kts
01-Oct-20 10:22 35.844642 -114.764357 85 20557ft 395kts
01-Oct-20 10:23 35.852808 -114.627087 94 22915ft 408kts
01-Oct-20 10:24 35.804581 -114.499409 123 24992ft 422kts
01-Oct-20 10:25 35.739167 -114.377440 121 26929ft 431kts
01-Oct-20 10:26 35.672807 -114.252732 121 28663ft 439kts
01-Oct-20 10:27 35.605414 -114.126337 121 30326ft 442kts
01-Oct-20 10:28 35.537684 -114.000411 122 32129ft 441kts
01-Oct-20 10:29 35.470043 -113.875063 122 33233ft 443kts
01-Oct-20 10:30 35.401869 -113.749450 122 33253ft 442kts
01-Oct-20 10:31 35.333639 -113.624216 122 33259ft 443kts
01-Oct-20 10:32 35.265466 -113.498192 122 33270ft 444kts
01-Oct-20 10:33 35.196947 -113.372523 122 33267ft 444kts
01-Oct-20 10:34 35.127870 -113.246484 122 33283ft 446kts
01-Oct-20 10:35 35.058704 -113.120774 122 33304ft 446kts
01-Oct-20 10:36 34.989339 -112.995151 122 33327ft 446kts
01-Oct-20 10:37 34.919913 -112.869857 122 33346ft 447kts
01-Oct-20 10:38 34.850328 -112.744139 122 33359ft 447kts
01-Oct-20 10:39 34.780386 -112.619036 122 33362ft 448kts
01-Oct-20 10:40 34.706053 -112.497426 137 33358ft 451kts
01-Oct-20 10:41 34.591559 -112.434311 160 33358ft 457kts
01-Oct-20 10:42 34.470754 -112.386088 159 33345ft 457kts
01-Oct-20 10:43 34.350189 -112.337332 159 33313ft 457kts
01-Oct-20 10:44 34.229519 -112.288455 159 33262ft 457kts
01-Oct-20 10:45 34.108971 -112.239874 159 33204ft 457kts
01-Oct-20 10:46 33.988090 -112.191322 159 33151ft 458kts
01-Oct-20 10:47 33.867224 -112.142929 159 33109ft 458kts
01-Oct-20 10:48 33.755636 -112.098366 160 33081ft 457kts
01-Oct-20 10:49 33.634788 -112.050125 160 33071ft 458kts
01-Oct-20 10:50 33.514202 -112.002336 159 31443ft 458kts
01-Oct-20 10:51 33.392269 -111.965058 171 28915ft 447kts
01-Oct-20 10:52 33.270102 -111.951749 173 26507ft 432kts
01-Oct-20 10:53 33.152537 -111.938567 173 24165ft 418kts
01-Oct-20 10:54 33.038581 -111.925799 174 21873ft 404kts
01-Oct-20 10:55 32.928484 -111.913494 174 19637ft 391kts
01-Oct-20 10:56 32.831300 -111.865014 144 17380ft 379kts
01-Oct-20 10:57 32.746804 -111.793496 144 15143ft 367kts
01-Oct-20 10:58 32.664479 -111.725486 145 12948ft 353kts
01-Oct-20 10:59 32.585240 -111.660290 145 11184ft 335kts
01-Oct-20 11:00 32.523037 -111.588649 126 11020ft 288kts
01-Oct-20 11:01 32.477961 -111.516139 127 11021ft 263kts
01-Oct-20 11:02 32.437588 -111.452180 127 11037ft 229kts
01-Oct-20 11:03 32.393070 -111.382024 127 10808ft 268kts
01-Oct-20 11:04 32.359726 -111.303934 113 9214ft 269kts
01-Oct-20 11:05 32.329915 -111.230270 115 8370ft 229kts
01-Oct-20 11:06 32.303567 -111.165946 115 7283ft 200kts
01-Oct-20 11:07 32.266964 -111.116544 135 6544ft 207kts
01-Oct-20 11:08 32.227328 -111.070126 134 5474ft 184kts
01-Oct-20 11:09 32.193658 -111.030519 134 4560ft 165kts
01-Oct-20 11:11 32.161805 -110.993071 134 3703ft 154kts
01-Oct-20 11:12 32.131424 -110.957372 134 2890ft 155kts
01-Oct-20 11:13 32.108375 -110.930309 134 2651ft 17kts
01-Oct-20 11:14 32.111117 -110.931796 311 2651ft 15kts
01-Oct-20 11:15 32.114680 -110.936073 315 2651ft 16kts
01-Oct-20 11:16 32.116911 -110.936350 37 2651ft 3kts
01-Oct-20 11:17 32.116937 -110.936326 37 2651ft 0kts
01-Oct-20 11:18 32.116937 -110.936326 37 2651ft 0kts
01-Oct-20 11:19 32.116937 -110.936326 37 2651ft 0kts
01-Oct-20 11:20 32.116937 -110.936326 37 2651ft 0kts

Navigation Log

Ident Type
Flight plan parsing failed, navigation log unavailable